Time;durP1;ratioP1;P1;durP2;ratioP2;P2;SDS_P1;SDS_P2;PMS_P1;PMS_P2;Temp;Humidity;BMP_temperature;BMP_pressure;BME280_temperature;BME280_humidity;BME280_pressure;Samples;Min_cycle;Max_cycle;Signal;HPM_P1;HPM_P2
2021/05/03 00:01:41;;;;;;;6.93;4.05;;;;;;;-0.17;100.00;101564.47;5037120;28;20053;-54
2021/05/03 00:04:08;;;;;;;5.65;3.42;;;;;;;-0.14;100.00;101568.72;5045989;28;20044;-53
2021/05/03 00:06:36;;;;;;;6.68;3.97;;;;;;;0.01;100.00;101567.94;5038015;28;20041;-54
2021/05/03 00:09:04;;;;;;;5.20;3.08;;;;;;;0.25;100.00;101563.25;5041979;28;20333;-54
2021/05/03 00:11:31;;;;;;;6.25;3.50;;;;;;;0.29;100.00;101572.66;5039878;28;20348;-54
2021/05/03 00:13:57;;;;;;;5.15;2.83;;;;;;;0.41;100.00;101570.34;5039015;28;20116;-54
2021/05/03 00:16:24;;;;;;;6.47;5.53;;;;;;;0.44;100.00;101570.19;5039252;28;20341;-52
2021/05/03 00:18:51;;;;;;;4.40;2.90;;;;;;;0.47;100.00;101568.25;5040112;28;20049;-55
2021/05/03 00:21:19;;;;;;;5.28;2.90;;;;;;;0.83;100.00;101566.41;5042062;28;20138;-52
2021/05/03 00:23:47;;;;;;;5.30;3.00;;;;;;;0.92;100.00;101565.94;5041105;28;20033;-54
2021/05/03 00:26:15;;;;;;;6.75;3.38;;;;;;;0.66;100.00;101569.94;5039596;28;20321;-54
2021/05/03 00:28:42;;;;;;;6.75;2.97;;;;;;;0.67;100.00;101569.84;5038056;28;20045;-54
2021/05/03 00:31:09;;;;;;;4.45;3.08;;;;;;;0.78;100.00;101566.66;5039104;28;20049;-54
2021/05/03 00:33:36;;;;;;;6.90;2.83;;;;;;;0.75;100.00;101565.97;5038866;28;20040;-52
2021/05/03 00:36:04;;;;;;;4.60;3.42;;;;;;;0.68;100.00;101568.91;5041193;28;20449;-54
2021/05/03 00:38:31;;;;;;;6.63;3.20;;;;;;;0.60;100.00;101568.47;5036915;28;20041;-54
2021/05/03 00:40:59;;;;;;;6.10;3.03;;;;;;;0.55;100.00;101569.63;5039302;28;20052;-53
2021/05/03 00:43:26;;;;;;;5.22;2.92;;;;;;;0.56;100.00;101568.72;5040290;28;20044;-54
2021/05/03 00:45:53;;;;;;;4.88;2.92;;;;;;;0.54;100.00;101554.78;5040502;28;20041;-54
2021/05/03 00:48:20;;;;;;;4.60;3.13;;;;;;;0.43;100.00;101548.31;5038168;28;20040;-54
2021/05/03 00:50:48;;;;;;;6.13;3.28;;;;;;;1.05;100.00;101546.84;5041826;28;20059;-54
2021/05/03 00:53:14;;;;;;;4.18;2.65;;;;;;;1.56;100.00;101544.91;5040669;28;20315;-54
2021/05/03 00:55:42;;;;;;;5.13;2.58;;;;;;;1.57;100.00;101546.56;5039367;28;20041;-53
2021/05/03 00:58:10;;;;;;;9.98;3.58;;;;;;;1.55;100.00;101541.38;5035671;28;20048;-54
2021/05/03 01:00:38;;;;;;;4.70;2.65;;;;;;;1.87;100.00;101537.84;5039343;28;21567;-54
2021/05/03 01:03:06;;;;;;;5.57;3.05;;;;;;;1.72;100.00;101535.16;5041203;28;20036;-54
2021/05/03 01:05:34;;;;;;;5.75;2.80;;;;;;;1.90;100.00;101532.41;5041355;28;20209;-54
2021/05/03 01:08:02;;;;;;;4.38;2.67;;;;;;;1.98;100.00;101534.59;5039143;28;20053;-51
2021/05/03 01:10:30;;;;;;;4.60;2.60;;;;;;;1.98;100.00;101531.97;5038979;28;20041;-52
2021/05/03 01:12:57;;;;;;;4.72;2.75;;;;;;;1.91;100.00;101538.53;5036515;28;20033;-50
2021/05/03 01:15:25;;;;;;;5.75;2.70;;;;;;;1.59;100.00;101541.22;5038422;28;20091;-54
2021/05/03 01:17:55;;;;;;;4.80;2.83;;;;;;;1.37;100.00;101548.53;5035569;28;20041;-53
2021/05/03 01:20:24;;;;;;;4.35;2.88;;;;;;;1.09;100.00;101543.09;5035756;28;20060;-54
2021/05/03 01:22:56;;;;;;;5.28;2.97;;;;;;;0.80;100.00;101549.00;5043102;28;20383;-54
2021/05/03 01:25:25;;;;;;;7.10;3.95;;;;;;;0.78;100.00;101555.28;5036583;28;20049;-54
2021/05/03 01:27:52;;;;;;;4.97;3.50;;;;;;;0.89;100.00;101557.34;5035594;28;20049;-53
2021/05/03 01:30:20;;;;;;;5.07;3.38;;;;;;;1.14;100.00;101551.59;5038312;28;20037;-52
2021/05/03 01:32:47;;;;;;;4.93;3.20;;;;;;;1.29;100.00;101563.06;5040020;28;20033;-55
2021/05/03 01:35:15;;;;;;;5.93;3.42;;;;;;;1.38;100.00;101554.66;5037790;28;20041;-53
2021/05/03 01:37:42;;;;;;;5.95;3.05;;;;;;;1.43;100.00;101557.03;5036215;28;20050;-54
2021/05/03 01:40:11;;;;;;;5.00;3.08;;;;;;;1.62;100.00;101555.06;5043237;28;20041;-54
2021/05/03 01:42:38;;;;;;;6.13;2.88;;;;;;;2.05;100.00;101555.22;5037907;28;20099;-54
2021/05/03 01:45:06;;;;;;;6.57;2.75;;;;;;;2.32;100.00;101554.53;5037178;28;20334;-54
2021/05/03 01:47:33;;;;;;;6.10;3.00;;;;;;;2.27;100.00;101550.47;5035545;28;20126;-54
2021/05/03 01:50:00;;;;;;;5.75;2.78;;;;;;;2.21;100.00;101549.91;5041627;28;20058;-54
2021/05/03 01:52:27;;;;;;;6.32;3.35;;;;;;;2.60;100.00;101546.75;5040518;28;20053;-53
2021/05/03 01:54:54;;;;;;;5.25;3.08;;;;;;;2.58;100.00;101547.69;5039836;28;20052;-54
2021/05/03 01:57:22;;;;;;;7.35;3.67;;;;;;;2.98;100.00;101551.44;5037236;28;20049;-53
2021/05/03 01:59:52;;;;;;;8.00;3.90;;;;;;;3.04;100.00;101556.34;5037790;28;20429;-55
2021/05/03 02:02:20;;;;;;;8.27;3.88;;;;;;;3.34;100.00;101544.78;5037420;28;20136;-54
2021/05/03 02:04:47;;;;;;;8.57;3.92;;;;;;;3.37;100.00;101552.50;5039935;28;20353;-54
2021/05/03 02:07:15;;;;;;;7.03;3.95;;;;;;;3.44;100.00;101533.56;5036610;28;20045;-55
2021/05/03 02:09:43;;;;;;;5.43;3.83;;;;;;;3.52;100.00;101537.50;5035938;28;20049;-53
2021/05/03 02:12:10;;;;;;;8.00;4.55;;;;;;;3.66;100.00;101536.56;5036227;28;20037;-53
2021/05/03 02:14:38;;;;;;;6.70;4.72;;;;;;;3.81;100.00;101534.72;5037572;28;20241;-54
2021/05/03 02:17:05;;;;;;;6.57;3.35;;;;;;;3.94;100.00;101533.81;5044093;28;20111;-55
2021/05/03 02:19:33;;;;;;;7.38;3.80;;;;;;;4.00;100.00;101526.41;5036513;28;20037;-54
2021/05/03 02:22:00;;;;;;;7.88;4.18;;;;;;;3.92;100.00;101527.75;5036210;28;20140;-54
2021/05/03 02:24:27;;;;;;;8.93;4.05;;;;;;;3.91;100.00;101526.09;5036202;28;20038;-54
2021/05/03 02:26:54;;;;;;;6.75;4.07;;;;;;;3.84;100.00;101529.22;5035987;28;20648;-54
2021/05/03 02:29:21;;;;;;;7.07;3.92;;;;;;;3.79;100.00;101525.09;5031778;28;20434;-54
2021/05/03 02:31:49;;;;;;;8.38;4.43;;;;;;;3.76;100.00;101520.03;5039312;28;20049;-54
2021/05/03 02:34:16;;;;;;;6.35;3.50;;;;;;;3.66;100.00;101521.59;5041034;28;20107;-54
2021/05/03 02:36:43;;;;;;;7.53;3.88;;;;;;;3.64;100.00;101520.81;5038610;28;20128;-54
2021/05/03 02:39:10;;;;;;;7.60;4.30;;;;;;;3.87;100.00;101518.44;5036735;28;20041;-54
2021/05/03 02:41:37;;;;;;;9.27;3.97;;;;;;;3.79;100.00;101525.09;5037970;28;20056;-54
2021/05/03 02:44:05;;;;;;;8.88;4.18;;;;;;;3.50;100.00;101518.25;5035823;28;20375;-55
2021/05/03 02:46:31;;;;;;;7.93;4.20;;;;;;;3.45;100.00;101515.91;5036983;28;20033;-52
2021/05/03 02:48:59;;;;;;;5.80;3.67;;;;;;;3.37;100.00;101521.66;5037416;28;20049;-53
2021/05/03 02:51:27;;;;;;;7.40;5.55;;;;;;;3.33;100.00;101514.91;5035909;28;20052;-54
2021/05/03 02:53:54;;;;;;;7.97;4.90;;;;;;;3.34;100.00;101526.31;5038505;28;20049;-54
2021/05/03 02:56:22;;;;;;;8.10;3.97;;;;;;;3.35;100.00;101506.91;5037393;28;20076;-51
2021/05/03 02:58:48;;;;;;;14.27;5.45;;;;;;;3.01;100.00;101525.72;5037155;28;20400;-54
2021/05/03 03:01:15;;;;;;;9.30;4.43;;;;;;;2.92;100.00;101523.66;5036007;28;20045;-54
2021/05/03 03:03:42;;;;;;;7.30;3.72;;;;;;;3.17;100.00;101524.75;5040020;28;20133;-54
2021/05/03 03:06:10;;;;;;;7.93;4.15;;;;;;;3.22;100.00;101517.41;5035860;28;20050;-52
2021/05/03 03:08:37;;;;;;;7.05;4.05;;;;;;;3.66;100.00;101505.72;5034838;28;20147;-54
2021/05/03 03:11:05;;;;;;;8.55;4.13;;;;;;;3.77;100.00;101519.06;5037624;28;20053;-54
2021/05/03 03:13:31;;;;;;;7.22;4.60;;;;;;;3.00;100.00;101516.09;5036262;28;20123;-54
2021/05/03 03:15:58;;;;;;;8.52;4.00;;;;;;;3.03;100.00;101520.34;5038329;28;20056;-54
2021/05/03 03:18:26;;;;;;;7.35;4.47;;;;;;;2.83;100.00;101522.44;5038759;28;20273;-54
2021/05/03 03:20:53;;;;;;;9.80;4.80;;;;;;;2.81;100.00;101507.63;5041733;28;20033;-53
2021/05/03 03:23:21;;;;;;;9.27;4.57;;;;;;;3.01;100.00;101512.53;5044989;28;20053;-54
2021/05/03 03:25:47;;;;;;;9.32;5.20;;;;;;;3.24;100.00;101504.94;5039802;28;20045;-54
2021/05/03 03:28:14;;;;;;;11.63;5.75;;;;;;;3.18;100.00;101521.19;5038023;28;20345;-53
2021/05/03 03:30:41;;;;;;;7.32;5.10;;;;;;;2.68;100.00;101513.69;5043737;28;20047;-52
2021/05/03 03:33:08;;;;;;;11.27;5.88;;;;;;;2.67;100.00;101504.09;5039253;28;20319;-55
2021/05/03 03:35:35;;;;;;;9.93;5.35;;;;;;;2.78;100.00;101499.91;5040260;28;20040;-50
2021/05/03 03:38:02;;;;;;;8.80;4.90;;;;;;;2.49;100.00;101502.56;5039022;28;20045;-52
2021/05/03 03:40:30;;;;;;;8.93;5.78;;;;;;;2.45;100.00;101498.44;5039514;28;20033;-54
2021/05/03 03:42:56;;;;;;;9.32;5.60;;;;;;;2.28;100.00;101500.28;5040703;28;20107;-52
2021/05/03 03:45:23;;;;;;;10.85;5.53;;;;;;;2.23;100.00;101508.47;5039193;28;20045;-54
2021/05/03 03:47:50;;;;;;;10.10;6.15;;;;;;;2.27;100.00;101503.03;5038563;28;20053;-50
2021/05/03 03:50:17;;;;;;;11.43;6.10;;;;;;;2.21;100.00;101493.69;5038100;28;20985;-53
2021/05/03 03:52:44;;;;;;;11.30;6.70;;;;;;;2.16;100.00;101490.50;5043410;28;20448;-54
2021/05/03 03:55:12;;;;;;;11.55;6.82;;;;;;;2.45;100.00;101488.72;5042483;28;20045;-54
2021/05/03 03:57:40;;;;;;;17.73;8.30;;;;;;;2.44;100.00;101484.41;5035712;28;20037;-54
2021/05/03 04:00:08;;;;;;;14.57;7.75;;;;;;;2.27;100.00;101488.06;5037458;28;20046;-54
2021/05/03 04:02:36;;;;;;;13.77;8.43;;;;;;;2.36;100.00;101492.78;5040875;28;20057;-53
2021/05/03 04:05:13;;;;;;;12.55;7.40;;;;;;;2.39;100.00;101489.94;5039923;28;20144;-54
2021/05/03 04:07:44;;;;;;;15.30;8.20;;;;;;;2.16;100.00;101496.63;5038218;28;20048;-54
2021/05/03 04:10:22;;;;;;;14.82;8.07;;;;;;;2.26;100.00;101501.34;5041409;28;20037;-51
2021/05/03 04:13:22;;;;;;;14.02;8.13;;;;;;;2.17;100.00;101505.34;5041558;28;20041;-54
2021/05/03 04:21:23;;;;;;;14.95;8.40;;;;;;;1.62;100.00;101497.13;5041707;28;20124;-65
2021/05/03 04:26:32;;;;;;;14.73;8.40;;;;;;;1.61;100.00;101495.44;5041052;28;20041;-64
2021/05/03 04:29:00;;;;;;;14.25;8.27;;;;;;;1.45;100.00;101490.22;5038512;28;20049;-64
2021/05/03 04:31:27;;;;;;;15.35;8.90;;;;;;;1.44;100.00;101498.19;5037374;28;20463;-64
2021/05/03 04:33:54;;;;;;;15.30;8.48;;;;;;;1.62;100.00;101493.66;5042985;28;20354;-64
2021/05/03 04:36:21;;;;;;;16.02;9.75;;;;;;;1.43;100.00;101497.31;5039949;28;20049;-64
2021/05/03 04:38:48;;;;;;;15.65;8.35;;;;;;;1.38;100.00;101494.97;5038017;28;20051;-64
2021/05/03 04:41:16;;;;;;;16.52;8.85;;;;;;;1.44;100.00;101488.50;5038437;28;20051;-64
2021/05/03 04:43:44;;;;;;;16.10;9.43;;;;;;;1.38;100.00;101489.69;5038166;28;20041;-64
2021/05/03 04:46:12;;;;;;;12.77;8.30;;;;;;;1.36;100.00;101477.56;5038152;28;20056;-64
2021/05/03 04:48:39;;;;;;;17.38;9.55;;;;;;;1.44;100.00;101487.66;5035639;28;20052;-64
2021/05/03 04:51:06;;;;;;;16.23;8.73;;;;;;;1.32;100.00;101491.84;5040734;28;20052;-64
2021/05/03 04:53:33;;;;;;;16.52;9.23;;;;;;;1.18;100.00;101488.19;5037922;28;20551;-64
2021/05/03 04:56:01;;;;;;;22.90;11.13;;;;;;;1.35;100.00;101492.50;5036920;28;20183;-64
2021/05/03 04:58:27;;;;;;;18.08;10.43;;;;;;;1.53;100.00;101489.75;5033709;28;20040;-64
2021/05/03 05:00:54;;;;;;;22.13;12.15;;;;;;;1.75;100.00;101488.53;5034090;28;20042;-64
2021/05/03 05:03:22;;;;;;;20.52;11.43;;;;;;;1.78;100.00;101488.34;5037876;28;20045;-66
2021/05/03 05:05:51;;;;;;;23.00;12.00;;;;;;;1.72;100.00;101492.19;5035728;28;20052;-63
2021/05/03 05:08:18;;;;;;;17.17;9.85;;;;;;;1.76;100.00;101496.34;5035082;28;20120;-63
2021/05/03 05:10:45;;;;;;;24.25;12.70;;;;;;;1.82;100.00;101492.50;5038369;28;20045;-66
2021/05/03 05:13:12;;;;;;;18.55;11.38;;;;;;;1.92;100.00;101492.81;5034797;28;20045;-63
2021/05/03 05:15:39;;;;;;;24.60;13.27;;;;;;;2.34;100.00;101494.66;5037098;28;20363;-65
2021/05/03 05:18:06;;;;;;;21.65;12.75;;;;;;;2.68;100.00;101503.16;5034764;28;20045;-63
2021/05/03 05:20:34;;;;;;;24.77;13.13;;;;;;;2.96;100.00;101504.03;5036659;28;20042;-63
2021/05/03 05:23:04;;;;;;;21.10;11.35;;;;;;;3.20;100.00;101503.44;5035363;28;20045;-63
2021/05/03 05:25:31;;;;;;;21.65;13.90;;;;;;;3.67;100.00;101502.16;5034071;28;20465;-63
2021/05/03 05:27:58;;;;;;;21.23;12.30;;;;;;;3.56;100.00;101494.91;5036461;28;20041;-63
2021/05/03 05:30:25;;;;;;;22.35;12.77;;;;;;;3.29;100.00;101492.28;5033695;28;20052;-63
2021/05/03 05:32:52;;;;;;;23.02;12.35;;;;;;;3.52;100.00;101498.72;5036846;28;20237;-63
2021/05/03 05:35:19;;;;;;;20.85;10.52;;;;;;;3.31;100.00;101495.66;5037185;28;20437;-65
2021/05/03 05:37:47;;;;;;;24.02;14.10;;;;;;;3.51;100.00;101498.81;5036083;28;20049;-64
2021/05/03 05:40:14;;;;;;;27.83;13.85;;;;;;;3.83;100.00;101493.19;5036749;28;20049;-63
2021/05/03 05:42:41;;;;;;;23.95;14.10;;;;;;;3.93;100.00;101491.63;5035236;28;20348;-63
2021/05/03 05:45:09;;;;;;;28.20;14.48;;;;;;;4.06;100.00;101489.84;5041518;28;20047;-63
2021/05/03 05:47:36;;;;;;;23.95;14.32;;;;;;;4.07;100.00;101491.53;5034032;28;20048;-63
2021/05/03 05:50:04;;;;;;;25.83;15.10;;;;;;;4.17;100.00;101493.53;5033510;28;20045;-64
2021/05/03 05:52:31;;;;;;;28.13;15.45;;;;;;;4.27;100.00;101491.97;5035796;28;20041;-63
2021/05/03 05:54:59;;;;;;;28.00;15.82;;;;;;;4.65;100.00;101491.13;5040884;28;20072;-63
2021/05/03 05:57:26;;;;;;;29.42;15.77;;;;;;;4.80;100.00;101490.00;5037954;28;20049;-63
2021/05/03 05:59:53;;;;;;;27.38;15.93;;;;;;;4.93;100.00;101490.00;5037448;28;20613;-64
2021/05/03 06:02:20;;;;;;;29.52;16.35;;;;;;;5.24;100.00;101489.56;5034181;28;20325;-64
2021/05/03 06:04:47;;;;;;;32.03;16.65;;;;;;;5.18;100.00;101485.56;5038646;28;20049;-64
2021/05/03 06:07:14;;;;;;;28.92;17.25;;;;;;;5.44;100.00;101494.25;5037615;28;20044;-64
2021/05/03 06:09:56;;;;;;;32.92;17.08;;;;;;;5.80;100.00;101497.78;5038866;28;20061;-64
2021/05/03 06:12:23;;;;;;;36.25;18.15;;;;;;;6.12;100.00;101494.50;5034486;28;20321;-64
2021/05/03 06:14:51;;;;;;;34.10;19.02;;;;;;;6.32;100.00;101497.44;5037264;28;20049;-64
2021/05/03 06:17:18;;;;;;;30.85;17.20;;;;;;;6.55;100.00;101493.84;5030921;28;20332;-64
2021/05/03 06:19:46;;;;;;;30.27;17.88;;;;;;;6.96;100.00;101496.00;5034565;28;20052;-65
2021/05/03 06:22:13;;;;;;;31.77;19.08;;;;;;;7.72;100.00;101496.00;5039036;28;20056;-64
2021/05/03 06:24:41;;;;;;;31.95;18.00;;;;;;;8.42;100.00;101496.31;5036590;28;20389;-65
2021/05/03 06:27:10;;;;;;;32.10;18.58;;;;;;;8.90;100.00;101490.41;5035452;28;20132;-64
2021/05/03 06:29:38;;;;;;;29.90;19.30;;;;;;;8.83;100.00;101491.91;5036863;28;20049;-64
2021/05/03 06:32:05;;;;;;;29.77;19.00;;;;;;;8.51;100.00;101495.56;5040963;28;20127;-64
2021/05/03 06:34:34;;;;;;;32.05;19.23;;;;;;;8.35;100.00;101496.03;5039895;28;20132;-64
2021/05/03 06:37:01;;;;;;;31.75;19.42;;;;;;;8.35;100.00;101500.47;5036185;28;20036;-64
2021/05/03 06:39:28;;;;;;;27.30;18.75;;;;;;;8.01;100.00;101495.38;5035588;28;20037;-64
2021/05/03 06:41:55;;;;;;;34.97;21.38;;;;;;;8.02;100.00;101499.72;5034477;28;20042;-64
2021/05/03 06:44:22;;;;;;;28.70;18.58;;;;;;;8.24;100.00;101506.75;5035452;28;20040;-64
2021/05/03 06:46:50;;;;;;;31.35;20.15;;;;;;;8.30;100.00;101497.38;5042913;28;20321;-64
2021/05/03 06:49:17;;;;;;;31.70;19.42;;;;;;;8.57;100.00;101511.00;5034383;28;20049;-65
2021/05/03 06:51:45;;;;;;;32.22;19.23;;;;;;;8.12;100.00;101508.59;5038404;28;20052;-64
2021/05/03 06:54:12;;;;;;;31.13;19.23;;;;;;;8.64;100.00;101505.97;5041029;28;20033;-64
2021/05/03 06:56:38;;;;;;;31.70;19.65;;;;;;;9.24;100.00;101500.72;5039302;28;20034;-64
2021/05/03 06:59:05;;;;;;;32.70;20.40;;;;;;;8.74;100.00;101504.19;5037426;28;20041;-65
2021/05/03 07:01:32;;;;;;;39.30;20.52;;;;;;;8.50;100.00;101503.69;5037007;28;20053;-64
2021/05/03 07:04:01;;;;;;;33.72;19.48;;;;;;;9.28;100.00;101504.75;5041482;28;20124;-65
2021/05/03 07:06:28;;;;;;;32.95;20.05;;;;;;;9.08;100.00;101514.53;5038941;28;20336;-64
2021/05/03 07:08:55;;;;;;;29.92;19.02;;;;;;;9.12;100.00;101509.81;5039955;28;20041;-64
2021/05/03 07:11:27;;;;;;;34.85;18.80;;;;;;;9.39;100.00;101510.97;5039764;28;20415;-64
2021/05/03 07:13:54;;;;;;;33.70;20.25;;;;;;;8.70;100.00;101504.59;5041740;28;20046;-64
2021/05/03 07:16:21;;;;;;;32.47;19.77;;;;;;;9.87;100.00;101503.97;5040944;28;20045;-64
2021/05/03 07:18:54;;;;;;;30.40;19.70;;;;;;;9.90;100.00;101506.34;5041177;28;20094;-64
2021/05/03 07:21:22;;;;;;;33.65;20.05;;;;;;;10.31;100.00;101497.13;5039566;28;20064;-64
2021/05/03 07:23:50;;;;;;;32.10;19.58;;;;;;;9.30;100.00;101499.31;5040108;28;20053;-64
2021/05/03 07:26:17;;;;;;;34.22;20.70;;;;;;;10.66;100.00;101495.66;5040484;28;20468;-65
2021/05/03 07:28:44;;;;;;;32.33;20.15;;;;;;;10.61;100.00;101497.91;5038846;28;20041;-65
2021/05/03 07:31:11;;;;;;;29.38;19.08;;;;;;;10.54;100.00;101496.81;5038244;28;20045;-65
2021/05/03 07:33:38;;;;;;;28.17;18.98;;;;;;;9.88;100.00;101492.28;5040346;28;20593;-64
2021/05/03 07:36:06;;;;;;;34.03;19.83;;;;;;;10.64;100.00;101489.59;5037985;28;20037;-65
2021/05/03 07:38:34;;;;;;;30.73;18.10;;;;;;;11.40;100.00;101492.13;5040091;28;20046;-64
2021/05/03 07:41:01;;;;;;;29.85;19.67;;;;;;;10.88;100.00;101484.72;5039401;28;20136;-65
2021/05/03 07:43:28;;;;;;;28.17;18.88;;;;;;;11.06;100.00;101492.75;5035733;28;20141;-64
2021/05/03 07:46:01;;;;;;;29.85;19.10;;;;;;;10.81;100.00;101481.78;5040012;28;20077;-64
2021/05/03 07:48:28;;;;;;;25.10;17.63;;;;;;;11.34;100.00;101489.06;5038279;28;20048;-65
2021/05/03 07:50:55;;;;;;;25.30;16.38;;;;;;;11.42;100.00;101479.44;5040420;28;20042;-64
2021/05/03 07:53:22;;;;;;;25.88;17.83;;;;;;;10.32;100.00;101482.81;5037193;28;20171;-64
2021/05/03 07:55:49;;;;;;;28.08;16.73;;;;;;;10.40;100.00;101475.94;5038607;28;20041;-65
2021/05/03 07:58:16;;;;;;;22.30;17.08;;;;;;;10.66;100.00;101474.28;5040001;28;20273;-64
2021/05/03 08:00:43;;;;;;;22.20;14.65;;;;;;;11.12;100.00;101470.78;5037762;28;20124;-64
2021/05/03 08:03:10;;;;;;;23.13;15.48;;;;;;;10.96;100.00;101474.13;5042949;28;20234;-65
2021/05/03 08:05:37;;;;;;;22.58;15.20;;;;;;;11.24;100.00;101468.75;5038685;28;20120;-64
2021/05/03 08:08:05;;;;;;;20.92;14.05;;;;;;;12.20;100.00;101466.19;5038360;28;20041;-64
2021/05/03 08:10:31;;;;;;;19.63;12.82;;;;;;;11.80;100.00;101456.88;5041199;28;20248;-64
2021/05/03 08:12:59;;;;;;;17.67;13.13;;;;;;;10.50;100.00;101466.91;5037582;28;20068;-64
2021/05/03 08:15:26;;;;;;;19.55;14.52;;;;;;;11.49;100.00;101456.44;5041373;28;20060;-64
2021/05/03 08:17:53;;;;;;;21.30;16.63;;;;;;;11.63;100.00;101452.41;5036008;28;20043;-64
2021/05/03 08:20:20;;;;;;;23.88;16.10;;;;;;;11.56;100.00;101456.69;5041272;28;20325;-64
2021/05/03 08:22:49;;;;;;;23.77;13.82;;;;;;;11.49;100.00;101448.41;5041329;28;20064;-64
2021/05/03 08:25:16;;;;;;;26.80;15.85;;;;;;;11.87;100.00;101449.91;5041758;28;20056;-65
2021/05/03 08:27:43;;;;;;;21.00;14.18;;;;;;;12.11;100.00;101458.31;5035187;28;20329;-64
2021/05/03 08:30:12;;;;;;;25.35;15.60;;;;;;;11.81;100.00;101444.34;5039088;28;20041;-65
2021/05/03 08:32:41;;;;;;;25.25;15.70;;;;;;;10.83;100.00;101451.28;5038658;28;20038;-64
2021/05/03 08:35:09;;;;;;;19.90;14.13;;;;;;;11.82;100.00;101454.03;5041623;28;20040;-64
2021/05/03 08:37:36;;;;;;;22.50;13.35;;;;;;;12.63;100.00;101443.97;5036610;28;20040;-65
2021/05/03 08:40:04;;;;;;;20.65;13.23;;;;;;;13.05;100.00;101446.63;5038694;28;20428;-65
2021/05/03 08:42:31;;;;;;;16.67;11.63;;;;;;;12.62;100.00;101443.16;5034840;28;20045;-65
2021/05/03 08:44:58;;;;;;;14.90;10.35;;;;;;;11.46;100.00;101448.75;5038302;28;20429;-64
2021/05/03 08:47:31;;;;;;;14.05;9.60;;;;;;;12.42;100.00;101445.25;5036979;28;20045;-64
2021/05/03 08:50:07;;;;;;;15.75;8.93;;;;;;;11.87;100.00;101441.03;5036735;28;20052;-64
2021/05/03 08:52:40;;;;;;;14.25;8.43;;;;;;;12.44;100.00;101442.41;5040362;28;20042;-65
2021/05/03 08:55:08;;;;;;;13.00;8.15;;;;;;;13.05;100.00;101435.06;5041757;28;20053;-64
2021/05/03 08:57:35;;;;;;;12.27;8.40;;;;;;;12.86;100.00;101430.84;5035444;28;20044;-65
2021/05/03 09:00:03;;;;;;;13.60;8.60;;;;;;;13.56;100.00;101432.31;5039347;28;20364;-64
2021/05/03 09:02:31;;;;;;;11.43;7.18;;;;;;;12.63;100.00;101431.44;5036779;28;20436;-64
2021/05/03 09:04:58;;;;;;;11.85;7.55;;;;;;;12.91;100.00;101432.03;5040479;28;20049;-65
2021/05/03 09:07:25;;;;;;;11.95;8.02;;;;;;;12.64;100.00;101418.88;5035894;28;20348;-64
2021/05/03 09:09:54;;;;;;;15.00;9.18;;;;;;;12.15;100.00;101424.84;5036212;28;20044;-64
2021/05/03 09:12:23;;;;;;;10.77;7.38;;;;;;;13.08;100.00;101414.16;5035161;28;20455;-65
2021/05/03 09:14:54;;;;;;;14.63;9.13;;;;;;;11.60;100.00;101424.09;5039494;28;20046;-64
2021/05/03 09:17:35;;;;;;;14.93;8.38;;;;;;;12.63;100.00;101420.72;5039771;28;20320;-64
2021/05/03 09:20:06;;;;;;;14.57;9.27;;;;;;;12.10;100.00;101409.25;5035413;28;20407;-64
2021/05/03 09:22:37;;;;;;;14.35;9.07;;;;;;;11.70;100.00;101408.78;5038079;28;20048;-64
2021/05/03 09:25:23;;;;;;;16.77;8.30;;;;;;;12.66;100.00;101409.69;5037846;28;20348;-64
2021/05/03 09:27:50;;;;;;;;;;;;;;;12.38;100.00;101404.53;5034947;28;20076;-65
2021/05/03 09:30:32;;;;;;;10.98;7.95;;;;;;;13.93;100.00;101401.41;5038000;28;20124;-64
2021/05/03 09:33:21;;;;;;;14.73;9.50;;;;;;;13.19;100.00;101391.53;5038082;28;20041;-64
2021/05/03 09:35:51;;;;;;;12.57;8.60;;;;;;;14.59;100.00;101390.44;5036933;28;20339;-65
2021/05/03 09:38:37;;;;;;;12.90;9.07;;;;;;;12.91;100.00;101366.84;5032785;28;20060;-64
2021/05/03 09:41:16;;;;;;;16.13;9.18;;;;;;;13.07;100.00;101384.81;5037638;28;21045;-64
2021/05/03 09:43:45;;;;;;;14.18;9.48;;;;;;;13.63;100.00;101376.13;5035520;28;20045;-64
2021/05/03 09:46:28;;;;;;;13.55;9.13;;;;;;;13.18;100.00;101370.22;5037645;28;20344;-64
2021/05/03 09:48:57;;;;;;;12.05;8.18;;;;;;;14.38;100.00;101375.75;5033529;28;20049;-64
2021/05/03 09:51:32;;;;;;;15.73;8.80;;;;;;;14.38;100.00;101367.69;5033093;28;20072;-64
2021/05/03 09:54:04;;;;;;;12.90;8.73;;;;;;;15.02;100.00;101357.78;5035605;28;20048;-64
2021/05/03 09:56:49;;;;;;;11.10;7.75;;;;;;;14.66;100.00;101348.44;5035452;28;20172;-65
2021/05/03 09:59:41;;;;;;;10.13;7.40;;;;;;;13.48;100.00;101346.44;5038114;28;20056;-64
2021/05/03 10:02:17;;;;;;;12.73;8.75;;;;;;;13.94;100.00;101346.69;5026969;28;20052;-65
2021/05/03 10:04:48;;;;;;;12.50;8.27;;;;;;;14.16;100.00;101341.59;5038445;28;20046;-65
2021/05/03 10:07:20;;;;;;;11.60;8.40;;;;;;;14.99;100.00;101342.84;5036311;28;20071;-65
2021/05/03 10:09:49;;;;;;;11.00;7.40;;;;;;;15.96;99.79;101334.06;5033153;28;20057;-65
2021/05/03 10:12:17;;;;;;;12.02;7.07;;;;;;;14.43;83.17;101316.09;5037876;28;20375;-65
2021/05/03 10:14:45;;;;;;;13.55;7.95;;;;;;;14.46;94.92;101321.16;5035531;28;20424;-65
2021/05/03 10:17:13;;;;;;;12.65;8.30;;;;;;;14.19;100.00;101328.66;5042971;28;20033;-65
2021/05/03 10:19:40;;;;;;;13.27;7.30;;;;;;;14.06;90.69;101304.19;5034723;28;20341;-65
2021/05/03 10:22:08;;;;;;;12.68;7.90;;;;;;;14.17;100.00;101311.03;5037875;28;20048;-65
2021/05/03 10:24:36;;;;;;;10.10;7.20;;;;;;;14.27;100.00;101308.97;5040983;28;20063;-65
2021/05/03 10:27:03;;;;;;;10.90;6.88;;;;;;;14.19;91.05;101301.81;5036954;28;20041;-65
2021/05/03 10:29:40;;;;;;;10.32;6.90;;;;;;;14.84;97.37;101301.59;5034156;28;20049;-65
2021/05/03 10:32:08;;;;;;;9.90;7.22;;;;;;;14.57;80.20;101293.00;5038950;28;20120;-65
2021/05/03 10:34:42;;;;;;;10.82;5.80;;;;;;;14.90;92.74;101300.88;5034932;28;20037;-65
2021/05/03 10:37:49;;;;;;;8.98;6.85;;;;;;;15.23;82.10;101292.56;5037455;28;20053;-65
2021/05/03 10:40:47;;;;;;;10.23;7.07;;;;;;;14.84;77.34;101283.59;5037703;28;20459;-65
2021/05/03 10:43:18;;;;;;;9.80;6.78;;;;;;;14.94;86.09;101281.53;5036877;28;20045;-65
2021/05/03 10:45:59;;;;;;;8.07;6.15;;;;;;;15.11;71.89;101276.84;5035451;28;20120;-65
2021/05/03 10:48:31;;;;;;;10.57;7.85;;;;;;;14.26;88.50;101278.59;5037773;28;20255;-65
2021/05/03 10:50:58;;;;;;;9.40;7.18;;;;;;;13.81;98.09;101265.84;5038844;28;20048;-65
2021/05/03 10:53:29;;;;;;;9.57;6.15;;;;;;;14.79;91.27;101257.28;5037012;28;20443;-65
2021/05/03 10:55:59;;;;;;;10.35;7.07;;;;;;;14.50;98.22;101262.50;5037022;28;20991;-65
2021/05/03 10:58:26;;;;;;;12.50;8.05;;;;;;;14.72;93.77;101256.31;5034882;28;20048;-65
2021/05/03 11:01:00;;;;;;;10.20;7.55;;;;;;;14.51;91.43;101253.44;5039629;28;20593;-65
2021/05/03 11:04:03;;;;;;;12.45;7.57;;;;;;;14.46;67.30;101249.41;5039059;28;20041;-65
2021/05/03 11:07:03;;;;;;;8.38;5.88;;;;;;;14.00;84.75;101235.09;5037070;28;20064;-65
2021/05/03 11:09:35;;;;;;;9.88;7.00;;;;;;;14.43;100.00;101230.13;5038006;28;20091;-65
2021/05/03 11:12:30;;;;;;;12.55;7.20;;;;;;;15.84;79.67;101238.59;5036078;28;20140;-65
2021/05/03 11:15:18;;;;;;;11.52;7.13;;;;;;;14.99;79.27;101229.88;5038923;28;20089;-65
2021/05/03 11:18:18;;;;;;;8.85;6.80;;;;;;;15.79;81.34;101214.06;5037951;28;20325;-65
2021/05/03 11:21:01;;;;;;;10.65;6.85;;;;;;;16.73;55.61;101210.50;5036768;28;20080;-65
2021/05/03 11:23:29;;;;;;;9.80;7.50;;;;;;;16.52;60.57;101219.44;5036591;28;20049;-65
2021/05/03 11:25:57;;;;;;;11.65;7.45;;;;;;;15.24;70.65;101226.94;5037498;28;20033;-65
2021/05/03 11:28:30;;;;;;;9.90;6.82;;;;;;;14.60;83.62;101225.47;5035116;28;20051;-65
2021/05/03 11:31:01;;;;;;;8.65;5.72;;;;;;;14.37;73.46;101209.34;5035611;28;20037;-65
2021/05/03 11:33:35;;;;;;;9.93;5.68;;;;;;;15.23;67.11;101219.91;5036323;28;20476;-65
2021/05/03 11:36:11;;;;;;;6.47;5.25;;;;;;;15.44;66.41;101206.56;5038411;28;20036;-65